CheckWX is a tool to help pilots better visualize weather data.  It is not intended as a substitute for an official pre-flight weather briefing.

22:43:05 UTC

KMOD TAF
Modesto City-Co-Harry Sham Field Airport
Modesto, California, USA
KMOD 251727Z 2518/2618 32006KT P6SM FEW250

Apr-25@
18:00 UTC

Apr-25 @ 18:00 UTC

Apr-26@
18:00 UTC

Apr-26 @ 18:00 UTC

KMOD 251727Z 2518/2618 32006KT P6SM FEW250
Wind
  • 320° at 6 KTS
Cloud Levels
  • Few at 25,000' AGL